Time;durP1;ratioP1;P1;durP2;ratioP2;P2;SDS_P1;SDS_P2;PMS_P1;PMS_P2;Temp;Humidity;BMP_temperature;BMP_pressure;BME280_temperature;BME280_humidity;BME280_pressure;Samples;Min_cycle;Max_cycle;Signal;HPM_P1;HPM_P2
2021/11/25 00:01:34;;;;;;;59.60;32.40;;;;;;;4.24;98.42;100554.81;1678244;85;27439;-70
2021/11/25 00:04:00;;;;;;;52.58;30.57;;;;;;;4.21;98.31;100555.36;1702791;82;25459;-70
2021/11/25 00:06:27;;;;;;;59.30;32.70;;;;;;;4.17;98.35;100553.73;1718539;82;25638;-71
2021/11/25 00:08:53;;;;;;;57.27;32.50;;;;;;;4.17;98.40;100547.55;1733070;82;25950;-70
2021/11/25 00:11:20;;;;;;;62.62;33.55;;;;;;;4.16;98.42;100543.28;1733143;82;25460;-71
2021/11/25 00:13:46;;;;;;;58.40;33.23;;;;;;;4.15;98.51;100542.46;1733127;82;27314;-70
2021/11/25 00:16:13;;;;;;;57.35;34.27;;;;;;;4.14;98.51;100543.55;1732995;82;25635;-70
2021/11/25 00:18:40;;;;;;;58.13;32.93;;;;;;;4.14;98.48;100537.36;1733128;82;25568;-71
2021/11/25 00:21:09;;;;;;;65.32;33.30;;;;;;;4.14;98.51;100540.86;1733035;82;26797;-70
2021/11/25 00:23:37;;;;;;;57.80;31.83;;;;;;;4.15;98.50;100539.78;1733338;82;25557;-71
2021/11/25 00:26:04;;;;;;;60.85;32.65;;;;;;;4.11;98.56;100532.80;1732943;82;27345;-71
2021/11/25 00:28:32;;;;;;;54.03;31.25;;;;;;;4.09;98.35;100532.81;1718407;82;25571;-71
2021/11/25 00:31:01;;;;;;;56.23;30.62;;;;;;;4.08;98.45;100529.84;1714488;82;25624;-71
2021/11/25 00:33:29;;;;;;;60.35;31.68;;;;;;;4.07;98.45;100528.22;1680457;85;25978;-71
2021/11/25 00:35:55;;;;;;;54.20;30.10;;;;;;;4.05;98.45;100527.68;1680670;85;25559;-71
2021/11/25 00:38:22;;;;;;;62.00;32.85;;;;;;;4.04;98.46;100524.75;1680611;85;27340;-71
2021/11/25 00:40:49;;;;;;;55.88;31.05;;;;;;;4.01;98.48;100519.37;1680538;85;25337;-71
2021/11/25 00:43:16;;;;;;;53.38;29.60;;;;;;;4.01;98.49;100519.37;1680665;85;25582;-71
2021/11/25 00:45:43;;;;;;;53.73;29.98;;;;;;;4.01;98.54;100517.23;1657428;85;25814;-71
2021/11/25 00:48:10;;;;;;;52.00;29.25;;;;;;;4.01;98.58;100517.23;1680665;85;25662;-71
2021/11/25 00:50:36;;;;;;;48.75;29.37;;;;;;;4.00;98.60;100514.27;1680632;85;27339;-71
2021/11/25 00:53:03;;;;;;;50.50;29.52;;;;;;;3.99;98.54;100515.35;1680557;85;25517;-71
2021/11/25 00:55:29;;;;;;;57.00;30.00;;;;;;;3.98;98.59;100517.74;1680694;85;25451;-71
2021/11/25 00:57:56;;;;;;;51.85;27.55;;;;;;;3.97;98.62;100513.44;1703494;82;25872;-71
2021/11/25 01:00:24;;;;;;;54.00;29.70;;;;;;;3.95;98.62;100505.70;1718385;82;25648;-71
2021/11/25 01:26:29;;;;;;;47.30;26.70;;;;;;;3.79;99.06;100493.28;1733201;81;25469;-70
2021/11/25 01:28:56;;;;;;;49.40;26.80;;;;;;;3.74;99.18;100488.16;1733249;82;25480;-70
2021/11/25 01:31:22;;;;;;;47.27;26.75;;;;;;;3.73;99.24;100486.56;1733198;82;25926;-70
2021/11/25 01:33:49;;;;;;;48.08;27.35;;;;;;;3.73;99.28;100478.54;1718644;82;25408;-70
2021/11/25 01:36:16;;;;;;;51.28;27.70;;;;;;;3.73;99.26;100483.89;1733246;82;27901;-70
2021/11/25 01:38:42;;;;;;;58.20;26.80;;;;;;;3.72;99.38;100480.13;1733166;82;25393;-70
2021/11/25 01:41:09;;;;;;;48.55;26.93;;;;;;;3.72;99.38;100480.13;1733252;82;25393;-70
2021/11/25 01:43:38;;;;;;;49.55;26.93;;;;;;;3.72;99.38;100477.45;1733120;82;25920;-70
2021/11/25 01:46:20;;;;;;;46.30;25.97;;;;;;;3.71;99.39;100473.98;1733034;82;25524;-70
2021/11/25 01:48:48;;;;;;;51.20;27.13;;;;;;;3.71;99.38;100475.33;1733230;82;27379;-70
2021/11/25 01:51:17;;;;;;;48.15;26.35;;;;;;;3.73;99.34;100473.19;1733122;82;25615;-70
2021/11/25 01:53:46;;;;;;;47.83;27.50;;;;;;;3.72;99.40;100467.55;1733330;82;33173;-70
2021/11/25 01:56:15;;;;;;;45.73;26.12;;;;;;;3.72;99.38;100464.88;1733142;82;26048;-70
2021/11/25 01:58:42;;;;;;;54.50;27.42;;;;;;;3.72;99.36;100461.41;1733305;82;25465;-70
2021/11/25 02:01:12;;;;;;;50.15;25.17;;;;;;;3.72;99.34;100454.72;1733206;82;27380;-70
2021/11/25 02:03:39;;;;;;;48.95;25.27;;;;;;;3.72;99.32;100452.84;1733064;82;25560;-70
2021/11/25 02:06:08;;;;;;;49.75;26.73;;;;;;;3.73;99.41;100453.66;1733213;82;25407;-70
2021/11/25 02:08:38;;;;;;;52.33;28.13;;;;;;;3.73;99.38;100449.11;1733382;82;25870;-70
2021/11/25 02:11:05;;;;;;;;;;;;;;;3.73;99.42;100442.96;1689731;83;25612;-70
2021/11/25 02:13:32;;;;;;;48.25;25.10;;;;;;;3.73;99.41;100441.08;1710769;83;27943;-70
2021/11/25 02:15:58;;;;;;;45.52;24.85;;;;;;;3.71;99.45;100440.55;1710699;83;25593;-70
2021/11/25 02:18:26;;;;;;;42.33;24.60;;;;;;;3.70;99.42;100437.58;1710813;83;25685;-70
2021/11/25 02:20:57;;;;;;;48.63;26.20;;;;;;;3.70;99.51;100431.44;1679366;83;26030;-70
2021/11/25 02:23:25;;;;;;;51.00;27.00;;;;;;;3.70;99.57;100432.77;1710496;83;25446;-70
2021/11/25 02:25:54;;;;;;;45.10;25.10;;;;;;;3.70;99.54;100431.44;1710782;83;27916;-70
2021/11/25 02:28:25;;;;;;;51.10;27.40;;;;;;;3.72;99.53;100429.30;1709301;82;25808;-71
2021/11/25 02:30:51;;;;;;;52.35;26.80;;;;;;;3.71;99.57;100424.48;1708556;84;25276;-71
2021/11/25 02:33:19;;;;;;;45.43;26.17;;;;;;;3.73;99.60;100432.26;1708554;84;25992;-71
2021/11/25 02:35:46;;;;;;;49.23;26.07;;;;;;;3.74;99.58;100426.63;1708500;84;25652;-72
2021/11/25 02:38:15;;;;;;;50.28;26.07;;;;;;;3.73;99.42;100422.35;1708461;84;27329;-71
2021/11/25 02:40:50;;;;;;;42.67;24.75;;;;;;;3.73;99.44;100418.88;1708451;84;25676;-71
2021/11/25 02:43:21;;;;;;;47.48;26.12;;;;;;;3.72;99.45;100415.38;1707347;84;25509;-70
2021/11/25 02:45:55;;;;;;;48.80;26.42;;;;;;;3.74;99.51;100415.12;1708469;84;26494;-71
2021/11/25 02:48:28;;;;;;;46.55;26.50;;;;;;;3.74;99.44;100408.44;1708527;84;25664;-70
2021/11/25 02:50:59;;;;;;;44.60;25.43;;;;;;;3.76;99.52;100404.96;1708512;84;28087;-70
2021/11/25 02:53:32;;;;;;;48.70;26.37;;;;;;;3.77;99.51;100402.57;1708359;84;25482;-70
2021/11/25 02:56:06;;;;;;;48.17;27.00;;;;;;;3.76;99.40;100399.61;1708591;84;25523;-70
2021/11/25 02:58:35;;;;;;;45.85;24.95;;;;;;;3.76;99.37;100400.15;1707421;83;26468;-70
2021/11/25 03:01:12;;;;;;;45.03;25.05;;;;;;;3.78;99.36;100385.97;1708481;84;25501;-70
2021/11/25 03:03:39;;;;;;;42.25;23.65;;;;;;;3.77;99.30;100394.55;1708449;84;27469;-70
2021/11/25 03:06:06;;;;;;;48.35;25.60;;;;;;;3.79;99.35;100387.59;1708379;84;25641;-70
2021/11/25 03:08:33;;;;;;;44.03;24.77;;;;;;;3.80;99.37;100387.84;1708481;84;25682;-70
2021/11/25 03:11:07;;;;;;;45.28;25.90;;;;;;;3.81;99.34;100380.11;1708408;84;25928;-70
2021/11/25 03:13:38;;;;;;;44.30;25.23;;;;;;;3.81;99.22;100382.23;1713358;82;25714;-70
2021/11/25 03:16:06;;;;;;;43.45;25.27;;;;;;;3.82;99.13;100373.16;1738636;82;27345;-70
2021/11/25 03:18:34;;;;;;;49.42;25.35;;;;;;;3.81;98.98;100374.75;1738563;82;25461;-70
2021/11/25 03:21:01;;;;;;;47.50;25.43;;;;;;;3.78;98.92;100370.75;1738662;82;25540;-70
2021/11/25 03:23:31;;;;;;;43.25;25.02;;;;;;;3.76;98.89;100361.36;1738572;82;25937;-70
2021/11/25 03:26:00;;;;;;;46.85;25.70;;;;;;;3.76;98.89;100368.05;1738680;82;25629;-70
2021/11/25 03:28:27;;;;;;;48.10;26.10;;;;;;;3.76;98.96;100368.05;1738514;82;27379;-70
2021/11/25 03:30:54;;;;;;;48.98;26.57;;;;;;;3.74;98.95;100358.39;1738312;82;25437;-70
2021/11/25 03:33:26;;;;;;;45.10;25.80;;;;;;;3.73;98.91;100356.01;1738388;82;25393;-70
2021/11/25 03:35:55;;;;;;;47.25;26.77;;;;;;;3.73;98.87;100357.34;1738126;82;26472;-70
2021/11/25 03:38:22;;;;;;;45.98;26.10;;;;;;;3.70;98.77;100347.95;1738506;82;33278;-70
2021/11/25 03:40:49;;;;;;;47.27;25.70;;;;;;;3.70;98.77;100343.15;1738423;82;27893;-70
2021/11/25 03:43:17;;;;;;;42.40;24.82;;;;;;;3.71;98.87;100341.55;1738231;82;25613;-71
2021/11/25 03:45:43;;;;;;;51.95;26.40;;;;;;;3.71;98.84;100340.73;1738397;82;25447;-71
2021/11/25 03:48:10;;;;;;;50.20;26.05;;;;;;;3.69;98.78;100339.65;1738325;82;25997;-72
2021/11/25 03:50:37;;;;;;;45.90;25.82;;;;;;;3.68;98.67;100342.07;1738368;82;25626;-72
2021/11/25 03:53:04;;;;;;;48.55;26.07;;;;;;;3.68;98.67;100335.38;1738401;82;27337;-72
2021/11/25 03:55:31;;;;;;;53.63;28.20;;;;;;;3.66;98.59;100329.49;1738263;82;25572;-72
2021/11/25 03:57:58;;;;;;;51.63;27.20;;;;;;;3.65;98.53;100324.41;1738387;82;25591;-72
2021/11/25 04:00:27;;;;;;;49.45;27.35;;;;;;;3.64;98.50;100320.91;1738300;82;25927;-72
2021/11/25 04:02:54;;;;;;;50.58;28.98;;;;;;;3.61;98.48;100313.94;1738479;82;25401;-70
2021/11/25 04:05:21;;;;;;;49.58;28.75;;;;;;;3.60;98.50;100312.34;1711671;82;27304;-70
2021/11/25 04:07:47;;;;;;;55.48;28.83;;;;;;;3.59;98.41;100312.06;1738257;82;25575;-70
2021/11/25 04:10:15;;;;;;;53.10;28.57;;;;;;;3.59;98.45;100311.52;1738383;82;25461;-70
2021/11/25 04:12:42;;;;;;;50.52;28.50;;;;;;;3.58;98.45;100307.80;1738309;82;26539;-70
2021/11/25 04:15:12;;;;;;;53.08;29.70;;;;;;;3.58;98.45;100298.44;1738375;82;25392;-70
2021/11/25 04:17:39;;;;;;;55.33;30.90;;;;;;;3.57;98.35;100301.63;1734730;82;27413;-70
2021/11/25 04:20:08;;;;;;;54.90;29.67;;;;;;;3.55;98.33;100295.20;1738233;82;25615;-70
2021/11/25 04:22:34;;;;;;;54.23;30.40;;;;;;;3.54;98.31;100296.79;1738502;82;25622;-70
2021/11/25 04:25:01;;;;;;;55.30;29.50;;;;;;;3.55;98.37;100298.41;1738245;82;25939;-70
2021/11/25 04:27:28;;;;;;;52.08;28.65;;;;;;;3.54;98.24;100291.44;1738287;82;25567;-70
2021/11/25 04:30:06;;;;;;;53.33;29.77;;;;;;;3.53;98.35;100286.63;1738324;82;27307;-70
2021/11/25 04:38:03;;;;;;;56.37;31.15;;;;;;;3.51;98.16;100274.61;1738335;82;25864;-70
2021/11/25 04:40:35;;;;;;;54.77;31.97;;;;;;;3.49;98.15;100266.84;1738487;82;25570;-70
2021/11/25 04:43:07;;;;;;;55.98;30.90;;;;;;;3.48;98.02;100268.44;1737736;81;27460;-70
2021/11/25 04:45:36;;;;;;;56.10;30.60;;;;;;;3.45;97.98;100265.73;1738255;82;25559;-70
2021/11/25 04:48:03;;;;;;;59.30;32.23;;;;;;;3.44;98.06;100266.00;1738358;82;25454;-70
2021/11/25 04:50:30;;;;;;;57.35;32.33;;;;;;;3.41;97.93;100256.64;1733790;82;25990;-70
2021/11/25 04:52:57;;;;;;;58.95;31.80;;;;;;;3.41;97.96;100256.64;1738366;82;25419;-71
2021/11/25 04:55:24;;;;;;;61.42;33.42;;;;;;;3.41;97.96;100265.21;1713348;82;27218;-71
2021/11/25 04:57:51;;;;;;;60.60;32.40;;;;;;;3.40;97.96;100256.36;1738281;82;25469;-71
2021/11/25 05:00:19;;;;;;;55.92;33.35;;;;;;;3.40;97.88;100264.38;1738514;82;25627;-71
2021/11/25 05:02:46;;;;;;;56.90;32.48;;;;;;;3.38;97.75;100257.70;1738444;82;25977;-71
2021/11/25 05:05:13;;;;;;;57.08;31.70;;;;;;;3.35;97.66;100250.48;1738451;82;25447;-71
2021/11/25 05:07:39;;;;;;;57.33;32.50;;;;;;;3.33;97.72;100251.80;1738470;82;27371;-71
2021/11/25 05:10:08;;;;;;;61.50;32.65;;;;;;;3.33;97.72;100247.24;1738388;82;25462;-71
2021/11/25 05:12:36;;;;;;;62.75;32.80;;;;;;;3.32;97.62;100246.16;1711749;82;25640;-71
2021/11/25 05:15:08;;;;;;;59.53;33.63;;;;;;;3.32;97.60;100252.85;1738502;82;25922;-73
2021/11/25 05:17:36;;;;;;;61.55;32.55;;;;;;;3.28;97.56;100243.22;1738507;82;25477;-73
2021/11/25 05:20:11;;;;;;;57.78;31.40;;;;;;;3.26;97.47;100242.67;1738528;82;27023;-73
2021/11/25 05:22:38;;;;;;;56.05;31.50;;;;;;;3.25;97.44;100241.09;1738406;82;25636;-72
2021/11/25 05:25:07;;;;;;;57.23;32.20;;;;;;;3.24;97.32;100240.01;1738504;82;25465;-70
2021/11/25 05:27:34;;;;;;;57.38;31.93;;;;;;;3.21;97.27;100235.97;1734287;82;25952;-69
2021/11/25 05:30:01;;;;;;;55.25;31.33;;;;;;;3.20;97.21;100234.35;1733501;82;25410;-70
2021/11/25 05:32:27;;;;;;;61.88;33.35;;;;;;;3.18;97.23;100236.48;1733229;82;27936;-71
2021/11/25 05:34:54;;;;;;;55.50;32.30;;;;;;;3.16;97.14;100230.06;1733082;82;25637;-71
2021/11/25 05:37:20;;;;;;;56.33;31.57;;;;;;;3.12;96.93;100224.98;1733222;82;25465;-71
2021/11/25 05:39:47;;;;;;;57.62;30.43;;;;;;;3.10;96.88;100219.61;1733155;82;25998;-71
2021/11/25 05:42:13;;;;;;;56.30;31.37;;;;;;;3.08;96.82;100219.07;1733256;82;25566;-71
2021/11/25 05:44:43;;;;;;;54.10;30.20;;;;;;;3.05;96.80;100213.73;1733184;82;27355;-71
2021/11/25 05:47:09;;;;;;;51.95;30.88;;;;;;;3.02;96.66;100218.25;1733265;82;34731;-71
2021/11/25 05:49:36;;;;;;;56.23;30.60;;;;;;;2.98;96.63;100213.97;1733219;82;25612;-73
2021/11/25 05:52:03;;;;;;;53.60;29.55;;;;;;;2.96;96.67;100217.44;1733193;82;25918;-72
2021/11/25 05:54:31;;;;;;;55.12;30.17;;;;;;;2.92;96.56;100211.53;1730153;82;25510;-72
2021/11/25 05:56:58;;;;;;;54.00;31.50;;;;;;;2.87;96.52;100213.63;1733185;82;27534;-72
2021/11/25 05:59:24;;;;;;;52.98;30.12;;;;;;;2.83;96.43;100212.55;1733099;82;25474;-72
2021/11/25 06:01:51;;;;;;;57.27;31.77;;;;;;;2.78;96.33;100213.86;1733197;82;25382;-72
2021/11/25 06:04:18;;;;;;;53.90;29.77;;;;;;;2.73;96.33;100219.17;1733135;82;25947;-72
2021/11/25 06:06:44;;;;;;;57.35;31.45;;;;;;;2.70;96.37;100214.34;1733179;82;25479;-72
2021/11/25 06:09:11;;;;;;;58.50;31.30;;;;;;;2.66;96.27;100224.74;1733185;82;28077;-73
2021/11/25 06:11:37;;;;;;;56.35;29.65;;;;;;;2.60;96.22;100217.75;1733106;82;25734;-71
2021/11/25 06:14:04;;;;;;;56.20;30.30;;;;;;;2.56;96.13;100224.14;1733214;82;25563;-72
2021/11/25 06:16:30;;;;;;;53.17;29.98;;;;;;;2.53;95.94;100223.84;1733177;82;26669;-72
2021/11/25 06:18:57;;;;;;;53.87;30.60;;;;;;;2.47;95.71;100223.02;1733167;82;25678;-72
2021/11/25 06:21:23;;;;;;;58.00;31.27;;;;;;;2.41;95.68;100227.50;1733171;82;27334;-72
2021/11/25 06:23:50;;;;;;;57.50;30.95;;;;;;;2.37;95.61;100219.73;1733025;82;25658;-72
2021/11/25 06:26:17;;;;;;;58.02;29.80;;;;;;;2.33;95.58;100211.95;1733225;82;25424;-71
2021/11/25 06:28:43;;;;;;;51.00;29.77;;;;;;;2.29;95.43;100208.19;1733030;82;26487;-72
2021/11/25 06:31:10;;;;;;;55.30;31.25;;;;;;;2.24;95.50;100206.28;1733778;82;25564;-72
2021/11/25 06:33:36;;;;;;;60.70;31.90;;;;;;;2.20;95.54;100202.53;1733178;82;28094;-71
2021/11/25 06:36:03;;;;;;;60.73;32.30;;;;;;;2.14;95.63;100200.87;1733079;82;25387;-71
2021/11/25 06:38:30;;;;;;;57.98;31.15;;;;;;;2.10;95.64;100201.66;1733163;82;25656;-71
2021/11/25 06:40:57;;;;;;;61.92;32.70;;;;;;;2.06;95.74;100196.02;1732248;82;26040;-73
2021/11/25 06:43:24;;;;;;;62.10;32.35;;;;;;;2.02;95.85;100185.03;1731478;82;25721;-72
2021/11/25 06:45:51;;;;;;;56.63;31.60;;;;;;;2.01;95.94;100183.44;1731428;82;27376;-72
2021/11/25 06:48:18;;;;;;;59.95;31.05;;;;;;;1.98;95.95;100181.27;1731467;82;25767;-73
2021/11/25 06:50:44;;;;;;;61.65;32.90;;;;;;;1.95;95.98;100176.44;1731642;82;25704;-72
2021/11/25 06:53:11;;;;;;;65.32;33.90;;;;;;;1.94;96.02;100178.84;1732247;82;26644;-73
2021/11/25 06:55:38;;;;;;;62.17;32.28;;;;;;;1.92;96.11;100174.81;1732795;82;25406;-73
2021/11/25 06:58:05;;;;;;;66.37;33.50;;;;;;;1.90;96.23;100171.06;1718599;82;27363;-73
2021/11/25 07:00:31;;;;;;;63.95;32.65;;;;;;;1.87;96.18;100164.89;1733423;82;25386;-72
2021/11/25 07:02:58;;;;;;;61.77;33.28;;;;;;;1.84;96.13;100166.22;1733146;82;25447;-72
2021/11/25 07:05:27;;;;;;;59.85;34.03;;;;;;;1.84;96.27;100162.76;1733088;82;25963;-72
2021/11/25 07:07:54;;;;;;;69.60;33.28;;;;;;;1.83;96.32;100159.27;1733281;82;25479;-73
2021/11/25 07:10:21;;;;;;;64.12;33.15;;;;;;;1.83;96.31;100165.14;1733147;82;28014;-72
2021/11/25 07:12:49;;;;;;;61.23;32.50;;;;;;;1.83;96.34;100162.47;1733083;82;25566;-72
2021/11/25 07:15:19;;;;;;;67.62;33.25;;;;;;;1.83;96.34;100165.14;1733156;82;25479;-72
2021/11/25 07:17:46;;;;;;;65.85;32.93;;;;;;;1.83;96.41;100165.14;1733106;82;25900;-72
2021/11/25 07:20:14;;;;;;;58.92;32.70;;;;;;;1.83;96.39;100161.94;1718581;82;25451;-72
2021/11/25 07:22:42;;;;;;;65.28;33.20;;;;;;;1.85;96.50;100162.48;1733105;82;27327;-72
2021/11/25 07:25:11;;;;;;;60.90;32.50;;;;;;;1.91;96.80;100159.85;1733012;82;25723;-72
2021/11/25 07:27:38;;;;;;;56.33;30.80;;;;;;;1.94;96.61;100148.17;1733332;82;30099;-72
2021/11/25 07:30:08;;;;;;;57.58;30.90;;;;;;;1.95;96.48;100148.43;1736910;82;26694;-74
2021/11/25 07:32:35;;;;;;;;;;;;;;;1.97;96.22;100140.97;1741048;82;25625;-71
2021/11/25 07:35:03;;;;;;;55.98;28.60;;;;;;;2.03;96.47;100132.49;1738410;82;27340;-71
2021/11/25 07:37:29;;;;;;;55.10;28.65;;;;;;;2.08;96.09;100137.87;1738297;82;25732;-73
2021/11/25 07:39:56;;;;;;;56.00;28.45;;;;;;;2.17;95.98;100128.31;1713369;82;25579;-72
2021/11/25 07:42:23;;;;;;;51.45;29.05;;;;;;;2.29;95.70;100124.66;1738333;82;26482;-72
2021/11/25 07:44:49;;;;;;;55.88;28.98;;;;;;;2.49;96.63;100115.97;1711770;82;25592;-72
2021/11/25 07:47:21;;;;;;;52.70;28.40;;;;;;;2.79;97.48;100118.77;1738714;82;28024;-72
2021/11/25 07:49:44;;;;;;;50.17;29.18;;;;;;;3.18;98.29;100112.20;1738439;82;25350;-73
2021/11/25 07:52:11;;;;;;;46.20;26.62;;;;;;;3.58;98.83;100105.86;1739487;82;25417;-72
2021/11/25 07:54:38;;;;;;;41.13;24.95;;;;;;;3.90;96.74;100098.91;1739706;82;25953;-72
2021/11/25 07:57:05;;;;;;;45.88;26.37;;;;;;;4.23;95.16;100096.70;1739455;82;25448;-71
2021/11/25 07:59:31;;;;;;;43.00;23.05;;;;;;;4.45;94.85;100097.72;1739089;82;27396;-73
2021/11/25 08:01:58;;;;;;;43.90;25.70;;;;;;;4.76;93.16;100087.68;1738281;82;25608;-73
2021/11/25 08:04:25;;;;;;;43.90;24.82;;;;;;;4.98;93.82;100086.52;1738339;82;25418;-73
2021/11/25 08:06:52;;;;;;;45.05;25.00;;;;;;;5.38;94.78;100077.94;1738324;82;26419;-73
2021/11/25 08:09:19;;;;;;;37.98;22.73;;;;;;;5.83;93.73;100075.98;1738365;82;25394;-72
2021/11/25 08:11:46;;;;;;;42.88;23.67;;;;;;;6.21;91.94;100062.75;1738369;82;27998;-72
2021/11/25 08:14:13;;;;;;;40.17;24.18;;;;;;;6.35;89.47;100072.27;1738271;82;25690;-72
2021/11/25 08:16:39;;;;;;;38.80;23.62;;;;;;;6.45;88.34;100059.27;1738392;82;25394;-72
2021/11/25 08:19:07;;;;;;;39.55;23.32;;;;;;;6.56;85.90;100060.75;1738271;82;26503;-72
2021/11/25 08:21:34;;;;;;;35.48;21.90;;;;;;;6.66;86.85;100054.45;1738359;82;25450;-72
2021/11/25 08:24:01;;;;;;;36.33;22.82;;;;;;;6.83;85.34;100052.08;1738296;82;27302;-72
2021/11/25 08:26:28;;;;;;;39.33;23.02;;;;;;;7.01;85.77;100051.81;1738316;82;25608;-72
2021/11/25 08:28:55;;;;;;;36.50;22.30;;;;;;;7.19;84.53;100048.88;1738371;82;25603;-72
2021/11/25 08:31:22;;;;;;;37.93;23.18;;;;;;;7.41;84.11;100046.92;1738540;82;25916;-73
2021/11/25 08:33:48;;;;;;;34.92;23.20;;;;;;;7.45;81.23;100049.83;1738617;82;25224;-73
2021/11/25 08:36:15;;;;;;;41.98;23.42;;;;;;;7.62;83.46;100049.28;1738585;82;27394;-74
2021/11/25 08:38:42;;;;;;;41.18;22.75;;;;;;;7.87;82.67;100044.02;1713304;82;25439;-73
2021/11/25 08:41:08;;;;;;;37.35;23.50;;;;;;;8.01;82.10;100037.30;1738491;82;25555;-72
2021/11/25 08:43:35;;;;;;;37.25;23.87;;;;;;;8.04;80.33;100032.11;1738463;82;25985;-75
2021/11/25 08:46:02;;;;;;;38.60;23.32;;;;;;;8.28;79.55;100035.72;1738541;82;25545;-75
2021/11/25 08:48:29;;;;;;;39.05;24.23;;;;;;;8.36;78.41;100026.91;1738505;82;27325;-72
2021/11/25 08:50:56;;;;;;;37.90;23.77;;;;;;;8.46;78.21;100026.73;1738470;82;25654;-73
2021/11/25 08:53:23;;;;;;;38.83;24.98;;;;;;;8.76;80.15;100019.12;1738529;82;25425;-73
2021/11/25 08:55:52;;;;;;;41.65;24.60;;;;;;;8.97;78.36;100018.92;1738549;82;25928;-73
2021/11/25 08:58:18;;;;;;;39.25;24.65;;;;;;;9.14;75.92;100017.45;1713413;82;25492;-73
2021/11/25 09:00:45;;;;;;;35.83;24.32;;;;;;;9.15;75.13;100019.05;1738559;82;28023;-72
2021/11/25 09:03:12;;;;;;;43.50;25.68;;;;;;;9.16;75.09;100020.66;1738421;82;25402;-73
2021/11/25 09:05:38;;;;;;;38.73;24.55;;;;;;;9.22;74.33;100009.97;1738502;82;25443;-73
2021/11/25 09:08:06;;;;;;;42.58;25.48;;;;;;;9.44;75.24;100001.64;1738508;82;26684;-72
2021/11/25 09:10:35;;;;;;;38.95;25.43;;;;;;;9.70;75.60;99999.89;1738555;82;25386;-73
2021/11/25 09:13:03;;;;;;;42.83;26.37;;;;;;;9.93;75.12;99989.55;1688269;84;27400;-73
2021/11/25 09:15:29;;;;;;;40.48;26.07;;;;;;;10.09;72.94;99990.17;1687846;85;25460;-72
2021/11/25 09:17:57;;;;;;;41.77;27.02;;;;;;;9.89;70.82;99982.63;1687992;85;25495;-72
2021/11/25 09:20:30;;;;;;;41.92;27.10;;;;;;;9.76;68.81;99982.20;1687952;85;25916;-71
2021/11/25 09:22:56;;;;;;;46.25;25.97;;;;;;;9.59;69.03;99978.30;1664677;85;25552;-72
2021/11/25 09:25:22;;;;;;;44.80;26.25;;;;;;;9.76;70.39;99969.48;1664827;86;27396;-72
2021/11/25 09:27:49;;;;;;;45.05;27.60;;;;;;;10.10;70.17;99965.32;1664675;86;25806;-72
2021/11/25 09:30:16;;;;;;;42.48;27.17;;;;;;;10.47;70.79;99964.54;1653817;86;25659;-72
2021/11/25 09:32:43;;;;;;;43.25;27.10;;;;;;;10.50;68.39;99963.13;1640135;87;26475;-72
2021/11/25 09:35:10;;;;;;;43.35;26.87;;;;;;;10.54;67.86;99958.66;1640233;87;25686;-72
2021/11/25 09:37:36;;;;;;;42.62;27.48;;;;;;;10.74;68.59;99953.98;1640204;87;28127;-71
2021/11/25 09:40:09;;;;;;;41.83;28.10;;;;;;;11.03;67.14;99952.55;1640178;87;25515;-72
2021/11/25 09:42:33;;;;;;;39.18;26.70;;;;;;;11.02;65.70;99938.80;1639836;87;25667;-72
2021/11/25 09:45:02;;;;;;;44.25;27.40;;;;;;;11.27;67.23;99933.64;1638617;86;26965;-72
2021/11/25 09:47:28;;;;;;;41.25;26.30;;;;;;;11.95;66.66;99925.07;1661203;84;25541;-73
2021/11/25 09:49:55;;;;;;;39.80;27.25;;;;;;;11.95;65.10;99916.13;1706790;84;27436;-72
2021/11/25 09:52:22;;;;;;;40.28;27.85;;;;;;;12.00;63.63;99915.16;1706592;84;25613;-67
2021/11/25 09:54:48;;;;;;;38.98;26.48;;;;;;;12.24;64.14;99916.70;1706709;84;25385;-68
2021/11/25 09:57:15;;;;;;;37.73;27.55;;;;;;;12.63;64.80;99916.55;1706594;84;26408;-69
2021/11/25 09:59:43;;;;;;;39.15;27.90;;;;;;;13.10;63.29;99907.38;1706821;84;25453;-68
2021/11/25 10:02:10;;;;;;;37.28;27.20;;;;;;;13.43;63.80;99900.01;1706638;84;27327;-69
2021/11/25 10:04:37;;;;;;;38.98;26.52;;;;;;;13.82;59.08;99899.12;1706538;84;25474;-73
2021/11/25 10:07:04;;;;;;;38.33;26.75;;;;;;;13.63;59.63;99888.80;1706655;84;25607;-73
2021/11/25 10:09:37;;;;;;;38.63;28.40;;;;;;;13.48;55.39;99877.81;1706685;84;26516;-73
2021/11/25 10:12:35;;;;;;;38.48;27.13;;;;;;;13.33;58.53;99872.47;1706772;83;25395;-73
2021/11/25 10:15:24;;;;;;;39.75;29.55;;;;;;;13.57;59.11;99872.50;1650652;86;27342;-72
2021/11/25 10:17:53;;;;;;;38.50;28.23;;;;;;;14.00;58.79;99857.52;1651323;86;25549;-72
2021/11/25 10:20:20;;;;;;;36.00;26.77;;;;;;;14.13;57.16;99849.33;1651382;86;25572;-72
2021/11/25 10:23:13;;;;;;;41.02;28.65;;;;;;;14.43;57.90;99843.59;1651171;86;25923;-72
2021/11/25 10:26:02;;;;;;;44.10;29.35;;;;;;;14.46;53.86;99835.53;1650872;85;25567;-72
2021/11/25 10:29:07;;;;;;;38.70;28.70;;;;;;;13.90;53.30;99832.16;1651228;86;27312;-71
2021/11/25 10:31:42;;;;;;;40.60;28.20;;;;;;;13.85;54.32;99823.45;1674210;85;25437;-72
2021/11/25 10:34:18;;;;;;;40.12;28.30;;;;;;;13.66;53.85;99815.90;1678707;85;25618;-71
2021/11/25 10:42:35;;;;;;;40.28;27.77;;;;;;;14.42;53.88;99799.28;1693587;84;27345;-70
2021/11/25 10:45:11;;;;;;;35.68;26.30;;;;;;;14.29;54.26;99793.08;1693501;84;25414;-72
2021/11/25 10:47:38;;;;;;;37.70;26.90;;;;;;;14.55;53.59;99787.17;1693625;84;25455;-71
2021/11/25 10:50:13;;;;;;;36.50;27.25;;;;;;;14.37;53.40;99790.00;1693544;84;25610;-72
2021/11/25 10:52:44;;;;;;;36.20;27.07;;;;;;;14.18;52.57;99777.83;1693999;84;25586;-70
2021/11/25 10:55:19;;;;;;;37.33;28.52;;;;;;;14.31;53.83;99779.92;1693525;84;27338;-71
2021/11/25 10:57:51;;;;;;;37.28;28.25;;;;;;;14.41;52.46;99784.66;1693600;84;25647;-72
2021/11/25 11:00:33;;;;;;;38.17;26.93;;;;;;;14.52;54.03;99770.20;1693579;84;25593;-72
2021/11/25 11:03:11;;;;;;;36.73;26.23;;;;;;;14.73;51.45;99767.86;1693551;84;25904;-73
2021/11/25 11:05:52;;;;;;;37.03;26.73;;;;;;;14.39;50.71;99759.94;1693672;84;27041;-71
2021/11/25 11:08:20;;;;;;;36.93;25.48;;;;;;;14.16;51.55;99765.13;1693556;84;27341;-71
2021/11/25 11:11:00;;;;;;;36.73;26.60;;;;;;;13.96;50.68;99750.59;1693521;84;25503;-71
2021/11/25 11:18:43;;;;;;;;;;;;;;;13.86;52.90;99740.75;1696100;84;25248;-71
2021/11/25 11:21:33;;;;;;;37.23;27.07;;;;;;;13.85;52.00;99735.11;1693547;84;27392;-71
2021/11/25 11:24:14;;;;;;;39.60;26.62;;;;;;;13.79;52.98;99740.79;1693530;84;25396;-71
2021/11/25 11:26:52;;;;;;;40.35;27.67;;;;;;;13.88;52.38;99737.14;1692182;84;25629;-70
2021/11/25 11:29:23;;;;;;;43.23;27.52;;;;;;;13.89;51.21;99729.98;1691637;84;25943;-71
2021/11/25 11:31:53;;;;;;;39.25;26.87;;;;;;;13.72;52.41;99728.33;1677255;84;25423;-70
2021/11/25 11:34:20;;;;;;;41.37;26.00;;;;;;;13.93;52.63;99724.67;1680147;85;27405;-70
2021/11/25 11:36:51;;;;;;;39.23;27.13;;;;;;;14.18;53.41;99722.08;1678563;85;25729;-70
2021/11/25 11:39:21;;;;;;;41.98;28.32;;;;;;;14.37;51.21;99709.75;1708635;84;25426;-70
2021/11/25 11:41:52;;;;;;;45.08;28.45;;;;;;;13.98;49.84;99706.17;1680102;85;25960;-71
2021/11/25 11:44:22;;;;;;;44.08;28.17;;;;;;;13.47;49.22;99697.72;1708703;84;25489;-71
2021/11/25 11:46:52;;;;;;;;;;;;;;;13.15;50.44;99685.86;1681146;85;27333;-71
2021/11/25 11:49:24;;;;;;;44.00;27.82;;;;;;;13.06;51.15;99695.48;1708610;84;25600;-68
2021/11/25 11:52:17;;;;;;;44.13;28.52;;;;;;;12.93;51.67;99685.75;1680194;85;25748;-70
2021/11/25 11:54:48;;;;;;;44.80;28.38;;;;;;;12.65;50.19;99686.39;1708620;84;26462;-68
2021/11/25 11:57:43;;;;;;;41.10;27.77;;;;;;;12.23;50.89;99678.41;1680186;85;25600;-68
2021/11/25 12:00:25;;;;;;;39.92;27.32;;;;;;;11.83;50.60;99678.91;1708690;83;27509;-68
2021/11/25 12:02:56;;;;;;;40.70;28.12;;;;;;;11.35;51.12;99676.39;1678567;85;25633;-67
2021/11/25 12:05:45;;;;;;;41.68;27.60;;;;;;;11.16;51.57;99672.77;1708661;84;25453;-68
2021/11/25 12:08:30;;;;;;;44.15;27.62;;;;;;;10.95;51.29;99661.12;1680080;85;28046;-69